createdAt,value
2023-04-05T00:02:02.646Z,99142.67
2023-04-05T00:04:34.230Z,99137.80
2023-04-05T00:07:02.021Z,99123.86
2023-04-05T00:09:28.928Z,99115.84
2023-04-05T00:11:56.529Z,99106.50
2023-04-05T00:14:23.522Z,99111.36
2023-04-05T00:16:50.577Z,99109.60
2023-04-05T00:19:17.402Z,99116.44
2023-04-05T00:21:48.195Z,99115.31
2023-04-05T00:24:15.293Z,99125.66
2023-04-05T00:26:43.635Z,99130.88
2023-04-05T00:29:10.589Z,99126.78
2023-04-05T00:31:37.396Z,99122.35
2023-04-05T00:34:08.668Z,99110.80
2023-04-05T00:36:37.137Z,99104.79
2023-04-05T00:39:03.874Z,99098.23
2023-04-05T00:41:32.352Z,99096.50
2023-04-05T00:43:59.413Z,99089.00
2023-04-05T00:46:34.601Z,99076.60
2023-04-05T00:49:02.349Z,99065.94
2023-04-05T00:51:30.682Z,99065.48
2023-04-05T00:53:58.342Z,99064.19
2023-04-05T00:56:25.212Z,99064.52
2023-04-05T00:58:56.979Z,99068.56
2023-04-05T01:01:25.992Z,99066.23
2023-04-05T01:03:59.266Z,99070.23
2023-04-05T01:06:57.604Z,99069.70
2023-04-05T01:09:46.662Z,99070.83
2023-04-05T01:12:17.705Z,99067.32
2023-04-05T01:14:46.920Z,99072.34
2023-04-05T01:17:15.832Z,99068.59
2023-04-05T01:19:47.651Z,99065.41
2023-04-05T01:22:37.436Z,99064.86
2023-04-05T01:25:27.822Z,99065.73
2023-04-05T01:27:57.493Z,99060.13
2023-04-05T01:30:30.414Z,99060.55
2023-04-05T01:33:23.476Z,99060.94
2023-04-05T01:36:17.508Z,99061.33
2023-04-05T01:38:46.442Z,99054.22
2023-04-05T01:41:13.921Z,99054.32
2023-04-05T01:43:42.189Z,99055.27
2023-04-05T01:46:09.291Z,99047.51
2023-04-05T01:48:36.169Z,99039.32
2023-04-05T01:51:03.227Z,99031.23
2023-04-05T01:53:30.365Z,99026.73
2023-04-05T01:56:01.156Z,99022.84
2023-04-05T01:58:28.581Z,99020.28
2023-04-05T02:00:55.873Z,99019.34
2023-04-05T02:03:24.336Z,99014.08
2023-04-05T02:05:53.077Z,99012.42
2023-04-05T02:08:20.327Z,99008.34
2023-04-05T02:10:49.114Z,99005.70
2023-04-05T02:13:16.697Z,99002.34
2023-04-05T02:15:50.485Z,98995.16
2023-04-05T02:18:21.829Z,98998.20
2023-04-05T02:20:51.878Z,98999.69
2023-04-05T02:23:19.745Z,99005.14
2023-04-05T02:25:46.860Z,99007.75
2023-04-05T02:28:13.497Z,99005.67
2023-04-05T02:30:40.761Z,99004.26
2023-04-05T02:33:12.070Z,98995.48
2023-04-05T02:35:38.902Z,99004.20
2023-04-05T02:38:06.584Z,99002.98
2023-04-05T02:40:34.193Z,98999.86
2023-04-05T02:43:01.442Z,99003.50
2023-04-05T02:45:28.214Z,99001.95
2023-04-05T02:47:57.284Z,98996.61
2023-04-05T02:50:24.332Z,98994.88
2023-04-05T02:52:51.435Z,98999.88
2023-04-05T02:55:19.936Z,98994.62
2023-04-05T02:57:47.190Z,98991.48
2023-04-05T03:00:37.958Z,98998.80
2023-04-05T03:03:05.213Z,98991.84
2023-04-05T03:05:33.599Z,98994.77
2023-04-05T03:08:01.878Z,98993.84
2023-04-05T03:10:35.482Z,98994.61
2023-04-05T03:13:08.460Z,99000.30
2023-04-05T03:15:38.792Z,99000.27
2023-04-05T03:18:09.216Z,99004.92
2023-04-05T03:20:41.053Z,99001.90
2023-04-05T03:23:13.675Z,99002.73
2023-04-05T03:25:41.439Z,98999.73
2023-04-05T03:28:09.997Z,98991.42
2023-04-05T03:30:39.906Z,98995.19
2023-04-05T03:33:19.991Z,98999.48
2023-04-05T03:35:49.894Z,99010.73
2023-04-05T03:38:17.458Z,99008.07
2023-04-05T03:40:52.586Z,99001.43
2023-04-05T03:43:20.661Z,98998.56
2023-04-05T03:45:47.836Z,98999.09
2023-04-05T03:48:19.951Z,99004.71
2023-04-05T03:50:48.058Z,99008.45
2023-04-05T03:53:19.885Z,99007.46
2023-04-05T03:55:49.865Z,99002.19
2023-04-05T03:58:18.709Z,99000.65
2023-04-05T04:00:47.175Z,98998.61
2023-04-05T04:03:18.208Z,98996.71
2023-04-05T04:05:47.380Z,98995.79
2023-04-05T04:08:16.496Z,98994.48
2023-04-05T04:10:43.540Z,98986.73
2023-04-05T04:13:22.981Z,98983.56
2023-04-05T04:15:58.997Z,98982.89
2023-04-05T04:18:36.728Z,98988.68
2023-04-05T04:21:24.469Z,98982.64
2023-04-05T04:24:03.083Z,98976.36
2023-04-05T04:26:47.357Z,98981.88
2023-04-05T04:29:31.208Z,98978.74
2023-04-05T04:32:26.414Z,98982.86
2023-04-05T04:35:04.744Z,98982.38
2023-04-05T04:38:00.715Z,98979.72
2023-04-05T04:40:54.030Z,98970.67
2023-04-05T04:43:44.734Z,98974.21
2023-04-05T04:46:42.037Z,98973.48
2023-04-05T04:49:16.763Z,98981.83
2023-04-05T04:51:46.096Z,98986.55
2023-04-05T04:54:12.980Z,98988.27
2023-04-05T04:56:41.351Z,98987.20
2023-04-05T04:59:08.414Z,98984.35
2023-04-05T05:01:40.496Z,98983.34
2023-04-05T05:04:09.751Z,98982.81
2023-04-05T05:06:38.687Z,98988.23
2023-04-05T05:09:05.984Z,98983.99
2023-04-05T05:11:40.181Z,98984.02
2023-04-05T05:14:10.582Z,98981.23
2023-04-05T05:16:37.992Z,98978.94
2023-04-05T05:19:06.373Z,98981.40
2023-04-05T05:21:48.926Z,98981.34
2023-04-05T05:24:21.782Z,98979.34
2023-04-05T05:26:48.641Z,98974.20
2023-04-05T05:29:17.442Z,98968.45
2023-04-05T05:31:45.829Z,98958.60
2023-04-05T05:34:13.090Z,98958.52
2023-04-05T05:36:43.531Z,98960.73
2023-04-05T05:39:11.195Z,98958.27
2023-04-05T05:41:38.508Z,98954.67
2023-04-05T05:44:06.270Z,98949.67
2023-04-05T05:46:33.870Z,98951.27
2023-04-05T05:49:01.131Z,98956.04
2023-04-05T05:51:27.916Z,98960.63
2023-04-05T05:53:55.482Z,98959.09
2023-04-05T05:56:22.432Z,98957.90
2023-04-05T05:58:50.109Z,98955.86
2023-04-05T06:01:17.050Z,98946.17
2023-04-05T06:03:44.987Z,98943.27
2023-04-05T06:06:12.392Z,98941.42
2023-04-05T06:08:39.525Z,98945.05
2023-04-05T06:11:06.573Z,98953.52
2023-04-05T06:13:33.701Z,98954.55
2023-04-05T06:16:05.957Z,98951.14
2023-04-05T06:18:33.747Z,98954.13
2023-04-05T06:21:00.791Z,98957.52
2023-04-05T06:23:28.474Z,98958.22
2023-04-05T06:25:56.394Z,98950.66
2023-04-05T06:28:23.084Z,98950.45
2023-04-05T06:30:51.440Z,98951.69
2023-04-05T06:33:19.210Z,98954.29
2023-04-05T06:35:46.201Z,98951.56
2023-04-05T06:38:14.397Z,98953.70
2023-04-05T06:40:41.844Z,98955.50
2023-04-05T06:43:12.760Z,98958.20
2023-04-05T06:45:41.398Z,98959.22
2023-04-05T06:48:11.519Z,98963.95
2023-04-05T06:50:41.665Z,98961.52
2023-04-05T06:53:09.688Z,98957.80
2023-04-05T06:55:36.637Z,98961.79
2023-04-05T06:58:03.908Z,98962.65
2023-04-05T07:00:33.565Z,98965.31
2023-04-05T07:03:20.964Z,98959.30
2023-04-05T07:05:54.548Z,98955.11
2023-04-05T07:08:30.379Z,98950.17
2023-04-05T07:11:00.452Z,98943.48
2023-04-05T07:13:27.565Z,98944.03
2023-04-05T07:16:01.165Z,98939.52
2023-04-05T07:18:29.664Z,98931.35
2023-04-05T07:21:01.647Z,98933.65
2023-04-05T07:23:34.828Z,98930.80
2023-04-05T07:26:04.476Z,98931.86
2023-04-05T07:28:33.545Z,98929.73
2023-04-05T07:31:01.674Z,98930.59
2023-04-05T07:33:30.469Z,98928.79
2023-04-05T07:35:58.085Z,98929.48
2023-04-05T07:38:26.271Z,98928.27
2023-04-05T07:40:53.363Z,98929.29
2023-04-05T07:43:20.372Z,98928.15
2023-04-05T07:45:47.403Z,98928.10
2023-04-05T07:48:14.690Z,98932.95
2023-04-05T07:50:47.040Z,98931.04
2023-04-05T07:53:14.405Z,98929.70
2023-04-05T07:55:41.685Z,98928.09
2023-04-05T07:58:10.633Z,98927.95
2023-04-05T08:00:38.958Z,98935.91
2023-04-05T08:03:07.808Z,98932.27
2023-04-05T08:05:35.655Z,98936.98
2023-04-05T08:08:02.807Z,98938.08
2023-04-05T08:10:31.341Z,98941.91
2023-04-05T08:12:58.645Z,98941.15
2023-04-05T08:15:27.635Z,98942.09
2023-04-05T08:18:01.728Z,98939.13
2023-04-05T08:20:29.920Z,98942.05
2023-04-05T08:22:57.143Z,98942.00
2023-04-05T08:25:24.213Z,98946.98
2023-04-05T08:27:51.600Z,98952.88
2023-04-05T08:30:19.445Z,98949.59
2023-04-05T08:32:47.444Z,98940.08
2023-04-05T08:35:15.788Z,98943.12
2023-04-05T08:45:51.327Z,98942.30
2023-04-05T08:48:20.690Z,98946.67
2023-04-05T08:50:52.459Z,98942.83
2023-04-05T08:53:21.033Z,98943.62
2023-04-05T08:55:50.208Z,98943.20
2023-04-05T08:58:21.201Z,98939.86
2023-04-05T09:00:51.954Z,98934.15
2023-04-05T09:03:23.633Z,98936.55
2023-04-05T09:05:54.027Z,98937.17
2023-04-05T09:08:25.174Z,98937.34
2023-04-05T09:10:54.736Z,98936.41
2023-04-05T09:13:22.081Z,98941.09
2023-04-05T09:15:49.718Z,98936.53
2023-04-05T09:18:26.939Z,98935.75
2023-04-05T09:21:07.183Z,98938.88
2023-04-05T09:31:35.307Z,98930.33
2023-04-05T09:34:08.392Z,98929.36
2023-04-05T09:36:44.042Z,98936.11
2023-04-05T09:39:12.023Z,98938.50
2023-04-05T09:41:39.171Z,98938.58
2023-04-05T09:44:06.776Z,98931.57
2023-04-05T09:46:38.207Z,98935.09
2023-04-05T09:49:07.519Z,98930.83
2023-04-05T09:51:35.756Z,98933.16
2023-04-05T09:54:06.091Z,98937.19
2023-04-05T09:56:38.271Z,98941.77
2023-04-05T09:59:13.056Z,98937.40
2023-04-05T10:01:43.898Z,98937.35
2023-04-05T10:04:11.746Z,98931.19
2023-04-05T10:06:40.751Z,98924.04
2023-04-05T10:09:09.980Z,98923.65
2023-04-05T10:11:38.022Z,98919.52
2023-04-05T10:14:06.822Z,98919.34
2023-04-05T10:16:57.816Z,98916.25
2023-04-05T10:20:11.336Z,98913.39
2023-04-05T10:23:10.962Z,98910.90
2023-04-05T10:25:53.794Z,98915.83
2023-04-05T10:28:31.312Z,98909.27
2023-04-05T10:31:11.827Z,98914.96
2023-04-05T10:33:43.090Z,98911.73
2023-04-05T10:36:16.930Z,98907.75
2023-04-05T10:38:53.147Z,98913.52
2023-04-05T10:41:20.447Z,98911.15
2023-04-05T10:43:47.616Z,98912.20
2023-04-05T10:46:15.000Z,98914.16
2023-04-05T10:48:50.063Z,98914.02
2023-04-05T10:51:17.523Z,98919.71
2023-04-05T10:53:44.757Z,98920.13
2023-04-05T10:56:11.757Z,98925.02
2023-04-05T10:58:40.065Z,98925.15
2023-04-05T11:01:07.532Z,98925.02
2023-04-05T11:03:41.511Z,98922.43
2023-04-05T11:06:23.129Z,98925.22
2023-04-05T11:08:55.286Z,98927.78
2023-04-05T11:11:23.127Z,98927.33
2023-04-05T11:13:55.533Z,98923.10
2023-04-05T11:16:23.587Z,98923.19
2023-04-05T11:18:52.802Z,98925.81
2023-04-05T11:21:24.988Z,98923.27
2023-04-05T11:24:06.547Z,98924.45
2023-04-05T11:26:40.129Z,98922.86
2023-04-05T11:29:07.649Z,98922.30
2023-04-05T11:31:34.786Z,98923.42
2023-04-05T11:34:12.437Z,98924.39
2023-04-05T11:36:47.571Z,98923.41
2023-04-05T11:39:17.660Z,98920.46
2023-04-05T11:41:47.663Z,98922.48
2023-04-05T11:44:15.798Z,98918.45
2023-04-05T11:46:45.383Z,98919.83
2023-04-05T11:49:13.186Z,98919.59
2023-04-05T11:51:42.493Z,98913.64
2023-04-05T11:54:10.093Z,98911.31
2023-04-05T11:56:41.493Z,98914.60
2023-04-05T11:59:13.494Z,98912.64
2023-04-05T12:01:45.079Z,98913.42
2023-04-05T12:04:14.481Z,98913.69
2023-04-05T12:06:41.445Z,98907.30
2023-04-05T12:09:08.599Z,98906.42
2023-04-05T12:11:40.683Z,98900.48
2023-04-05T12:14:07.824Z,98897.49
2023-04-05T12:17:10.585Z,98889.63
2023-04-05T12:19:37.966Z,98884.11
2023-04-05T12:22:05.188Z,98884.05
2023-04-05T12:24:32.527Z,98884.08
2023-04-05T12:27:01.165Z,98880.02
2023-04-05T12:29:51.467Z,98875.78
2023-04-05T12:32:18.467Z,98878.02
2023-04-05T12:34:47.364Z,98874.13
2023-04-05T12:37:16.451Z,98872.27
2023-04-05T12:39:43.414Z,98871.29
2023-04-05T12:42:16.728Z,98873.30
2023-04-05T12:44:43.545Z,98868.96
2023-04-05T12:47:10.953Z,98870.71
2023-04-05T12:49:39.008Z,98871.48
2023-04-05T12:52:06.251Z,98869.23
2023-04-05T12:54:33.573Z,98868.25
2023-04-05T12:57:01.500Z,98864.54
2023-04-05T12:59:28.820Z,98856.50
2023-04-05T13:01:55.955Z,98852.42
2023-04-05T13:04:22.794Z,98849.09
2023-04-05T13:06:50.461Z,98852.59
2023-04-05T13:09:17.786Z,98854.33
2023-04-05T13:11:44.644Z,98858.86
2023-04-05T13:14:13.651Z,98867.04
2023-04-05T13:16:41.126Z,98856.77
2023-04-05T13:19:08.172Z,98859.69
2023-04-05T13:21:35.478Z,98856.33
2023-04-05T13:24:02.253Z,98854.52
2023-04-05T13:26:29.301Z,98853.42
2023-04-05T13:28:56.241Z,98849.64
2023-04-05T13:31:23.032Z,98850.22
2023-04-05T13:33:49.958Z,98850.55
2023-04-05T13:36:16.933Z,98853.33
2023-04-05T13:38:45.329Z,98845.65
2023-04-05T13:41:13.595Z,98843.27
2023-04-05T13:43:40.479Z,98850.06
2023-04-05T13:46:07.941Z,98850.48
2023-04-05T13:48:35.148Z,98845.77
2023-04-05T13:51:05.689Z,98852.66
2023-04-05T13:53:32.930Z,98851.64
2023-04-05T13:55:59.693Z,98855.73
2023-04-05T13:58:28.041Z,98852.46
2023-04-05T14:00:54.988Z,98856.02
2023-04-05T14:03:24.007Z,98853.42
2023-04-05T14:05:53.070Z,98854.46
2023-04-05T14:08:21.655Z,98845.61
2023-04-05T14:10:51.165Z,98841.96
2023-04-05T14:13:19.484Z,98836.38
2023-04-05T14:15:46.606Z,98830.94
2023-04-05T14:18:17.443Z,98831.51
2023-04-05T14:20:45.387Z,98831.81
2023-04-05T14:23:13.964Z,98824.98
2023-04-05T14:25:41.893Z,98823.98
2023-04-05T14:28:08.875Z,98822.05
2023-04-05T14:30:38.842Z,98826.19
2023-04-05T14:33:06.776Z,98820.58
2023-04-05T14:35:33.840Z,98824.84
2023-04-05T14:38:03.223Z,98826.64
2023-04-05T14:40:30.364Z,98828.55
2023-04-05T14:42:57.818Z,98826.73
2023-04-05T14:45:27.884Z,98824.39
2023-04-05T14:47:55.287Z,98835.88
2023-04-05T14:50:25.219Z,98836.05
2023-04-05T14:52:52.975Z,98840.64
2023-04-05T14:55:19.819Z,98851.27
2023-04-05T14:57:46.767Z,98856.59
2023-04-05T15:00:14.645Z,98844.31
2023-04-05T15:03:01.434Z,98845.36
2023-04-05T15:05:30.539Z,98841.70
2023-04-05T15:07:57.452Z,98850.73
2023-04-05T15:10:38.456Z,98855.59
2023-04-05T15:13:05.595Z,98859.27
2023-04-05T15:15:32.312Z,98847.73
2023-04-05T15:18:02.784Z,98844.63
2023-04-05T15:20:30.409Z,98840.94
2023-04-05T15:22:57.590Z,98838.75
2023-04-05T15:25:24.514Z,98842.14
2023-04-05T15:27:52.002Z,98847.54
2023-04-05T15:30:19.336Z,98843.63
2023-04-05T15:32:46.378Z,98835.52
2023-04-05T15:35:13.342Z,98842.65
2023-04-05T15:37:42.123Z,98844.72
2023-04-05T15:40:09.942Z,98852.80
2023-04-05T15:42:36.655Z,98850.69
2023-04-05T15:45:04.877Z,98849.27
2023-04-05T15:47:31.995Z,98850.65
2023-04-05T15:49:59.078Z,98843.96
2023-04-05T15:52:26.025Z,98846.51
2023-04-05T15:54:53.275Z,98851.54
2023-04-05T15:57:20.216Z,98847.09
2023-04-05T15:59:47.049Z,98842.65
2023-04-05T16:02:14.079Z,98844.95
2023-04-05T16:04:41.389Z,98842.85
2023-04-05T16:07:09.323Z,98844.04
2023-04-05T16:09:36.585Z,98839.23
2023-04-05T16:12:03.944Z,98837.50
2023-04-05T16:14:33.641Z,98836.14
2023-04-05T16:17:01.444Z,98838.13
2023-04-05T16:19:28.728Z,98836.79
2023-04-05T16:21:56.468Z,98834.54
2023-04-05T16:24:23.674Z,98838.02
2023-04-05T16:26:50.638Z,98837.52
2023-04-05T16:29:17.583Z,98837.25
2023-04-05T16:31:46.874Z,98842.71
2023-04-05T16:34:15.207Z,98848.27
2023-04-05T16:36:42.185Z,98848.19
2023-04-05T16:39:09.024Z,98852.42
2023-04-05T16:41:37.133Z,98848.69
2023-04-05T16:44:04.148Z,98843.99
2023-04-05T16:46:31.989Z,98847.34
2023-04-05T16:48:59.393Z,98837.25
2023-04-05T16:51:27.354Z,98844.95
2023-04-05T16:53:54.909Z,98846.60
2023-04-05T16:56:23.815Z,98848.98
2023-04-05T16:58:51.395Z,98850.26
2023-04-05T17:01:18.683Z,98845.15
2023-04-05T17:03:46.609Z,98836.79
2023-04-05T17:06:14.089Z,98849.40
2023-04-05T17:08:41.783Z,98852.95
2023-04-05T17:11:08.628Z,98855.60
2023-04-05T17:13:38.787Z,98854.42
2023-04-05T17:16:06.854Z,98855.02
2023-04-05T17:18:33.856Z,98852.16
2023-04-05T17:21:03.256Z,98863.31
2023-04-05T17:23:30.090Z,98858.66
2023-04-05T17:25:56.945Z,98860.55
2023-04-05T17:28:25.253Z,98863.15
2023-04-05T17:30:52.280Z,98865.75
2023-04-05T17:33:27.299Z,98863.17
2023-04-05T17:35:54.544Z,98864.89
2023-04-05T17:38:22.322Z,98869.06
2023-04-05T17:40:51.753Z,98857.65
2023-04-05T17:43:19.283Z,98865.45
2023-04-05T17:45:46.569Z,98863.41
2023-04-05T17:48:13.502Z,98862.46
2023-04-05T17:50:45.488Z,98866.20
2023-04-05T17:53:13.838Z,98865.94
2023-04-05T17:55:40.658Z,98871.77
2023-04-05T17:58:07.617Z,98867.08
2023-04-05T18:00:34.557Z,98862.36
2023-04-05T18:03:05.918Z,98864.59
2023-04-05T18:05:34.501Z,98866.79
2023-04-05T18:08:01.415Z,98869.09
2023-04-05T18:10:28.700Z,98864.09
2023-04-05T18:12:55.933Z,98859.26
2023-04-05T18:15:25.463Z,98866.64
2023-04-05T18:17:52.959Z,98857.88
2023-04-05T18:20:20.697Z,98858.30
2023-04-05T18:22:59.990Z,98858.27
2023-04-05T18:25:30.209Z,98856.95
2023-04-05T18:27:58.283Z,98845.64
2023-04-05T18:30:26.256Z,98853.44
2023-04-05T18:32:54.165Z,98848.42
2023-04-05T18:35:21.773Z,98846.59
2023-04-05T18:37:48.705Z,98839.40
2023-04-05T18:40:15.756Z,98838.27
2023-04-05T18:42:44.848Z,98836.04
2023-04-05T18:45:12.200Z,98835.30
2023-04-05T18:47:39.379Z,98828.98
2023-04-05T18:50:09.366Z,98834.44
2023-04-05T18:52:37.056Z,98831.44
2023-04-05T18:55:04.883Z,98819.92
2023-04-05T18:57:31.939Z,98821.07
2023-04-05T18:59:58.995Z,98821.27
2023-04-05T19:02:26.079Z,98827.95
2023-04-05T19:04:54.904Z,98822.55
2023-04-05T19:07:22.601Z,98820.46
2023-04-05T19:09:49.737Z,98822.87
2023-04-05T19:12:16.629Z,98819.73
2023-04-05T19:14:48.549Z,98824.85
2023-04-05T19:17:16.612Z,98821.23
2023-04-05T19:19:43.367Z,98820.02
2023-04-05T19:22:11.150Z,98815.25
2023-04-05T19:24:39.917Z,98809.68
2023-04-05T19:27:06.770Z,98814.96
2023-04-05T19:29:35.561Z,98803.55
2023-04-05T19:32:02.514Z,98802.48
2023-04-05T19:34:30.445Z,98802.40
2023-04-05T19:36:58.210Z,98801.27
2023-04-05T19:39:25.977Z,98791.80
2023-04-05T19:41:57.145Z,98794.42
2023-04-05T19:44:50.972Z,98789.30
2023-04-05T19:47:20.545Z,98786.44
2023-04-05T19:49:48.870Z,98782.20
2023-04-05T19:52:34.274Z,98780.95
2023-04-05T19:55:08.016Z,98784.07
2023-04-05T19:57:40.830Z,98781.23
2023-04-05T20:00:31.021Z,98777.15
2023-04-05T20:02:59.151Z,98773.23
2023-04-05T20:05:41.709Z,98771.32
2023-04-05T20:08:09.270Z,98767.20
2023-04-05T20:10:40.104Z,98766.14
2023-04-05T20:13:11.862Z,98760.83
2023-04-05T20:15:39.129Z,98755.02
2023-04-05T20:18:06.228Z,98765.37
2023-04-05T20:20:35.046Z,98758.67
2023-04-05T20:23:07.669Z,98757.35
2023-04-05T20:25:39.287Z,98750.02
2023-04-05T20:28:38.729Z,98751.02
2023-04-05T20:31:08.101Z,98748.54
2023-04-05T20:33:45.720Z,98747.27
2023-04-05T20:36:13.119Z,98742.06
2023-04-05T20:38:41.924Z,98738.17
2023-04-05T20:41:09.585Z,98738.40
2023-04-05T20:43:37.044Z,98730.48
2023-04-05T20:46:05.735Z,98720.91
2023-04-05T20:48:33.622Z,98720.60
2023-04-05T20:51:02.895Z,98717.49
2023-04-05T20:53:30.227Z,98711.17
2023-04-05T20:55:58.520Z,98713.70
2023-04-05T20:58:27.376Z,98703.70
2023-04-05T21:00:55.282Z,98709.66
2023-04-05T21:03:41.380Z,98701.58
2023-04-05T21:06:09.884Z,98697.23
2023-04-05T21:08:40.421Z,98695.55
2023-04-05T21:11:11.248Z,98691.77
2023-04-05T21:13:38.777Z,98688.65
2023-04-05T21:16:06.155Z,98691.23
2023-04-05T21:18:35.832Z,98687.29
2023-04-05T21:21:02.986Z,98689.28
2023-04-05T21:23:31.202Z,98680.30
2023-04-05T21:25:59.348Z,98692.48
2023-04-05T21:28:26.241Z,98685.59
2023-04-05T21:30:54.556Z,98691.48
2023-04-05T21:33:22.482Z,98698.17
2023-04-05T21:35:50.224Z,98696.44
2023-04-05T21:38:18.863Z,98694.44
2023-04-05T21:40:46.222Z,98686.13
2023-04-05T21:43:15.182Z,98683.05
2023-04-05T21:45:43.395Z,98687.42
2023-04-05T21:48:10.478Z,98687.35
2023-04-05T21:50:38.958Z,98685.13
2023-04-05T21:53:06.774Z,98687.27
2023-04-05T21:55:34.827Z,98686.05
2023-04-05T21:58:02.407Z,98684.61
2023-04-05T22:00:29.322Z,98682.56
2023-04-05T22:03:00.820Z,98678.58
2023-04-05T22:05:37.406Z,98672.39
2023-04-05T22:08:07.018Z,98672.27
2023-04-05T22:10:35.178Z,98677.89
2023-04-05T22:13:02.138Z,98676.80
2023-04-05T22:15:30.058Z,98677.69
2023-04-05T22:17:56.841Z,98675.77
2023-04-05T22:20:23.607Z,98668.71
2023-04-05T22:22:50.899Z,98663.90
2023-04-05T22:25:19.339Z,98662.89
2023-04-05T22:27:46.853Z,98659.31
2023-04-05T22:30:14.089Z,98660.11
2023-04-05T22:32:41.775Z,98665.40
2023-04-05T22:35:09.807Z,98661.85
2023-04-05T22:37:37.780Z,98655.40
2023-04-05T22:40:05.556Z,98656.67
2023-04-05T22:42:34.690Z,98654.02
2023-04-05T22:45:02.923Z,98649.37
2023-04-05T22:47:30.696Z,98654.95
2023-04-05T22:49:57.534Z,98655.04
2023-04-05T22:52:24.673Z,98649.16
2023-04-05T22:54:51.532Z,98649.38
2023-04-05T22:57:18.554Z,98644.66
2023-04-05T22:59:45.508Z,98649.03
2023-04-05T23:02:13.381Z,98650.59
2023-04-05T23:04:40.963Z,98645.27
2023-04-05T23:07:08.012Z,98640.15
2023-04-05T23:09:35.273Z,98639.94
2023-04-05T23:12:04.234Z,98636.74
2023-04-05T23:14:31.138Z,98637.95
2023-04-05T23:16:58.020Z,98638.34
2023-04-05T23:19:25.603Z,98641.41
2023-04-05T23:21:53.175Z,98638.41
2023-04-05T23:24:19.863Z,98639.79
2023-04-05T23:26:46.804Z,98639.23
2023-04-05T23:29:14.822Z,98643.50
2023-04-05T23:31:42.734Z,98638.02
2023-04-05T23:34:09.993Z,98634.64
2023-04-05T23:36:38.167Z,98628.95
2023-04-05T23:39:05.173Z,98632.20
2023-04-05T23:41:32.058Z,98640.50
2023-04-05T23:43:59.541Z,98628.38
2023-04-05T23:46:26.581Z,98623.63
2023-04-05T23:48:53.344Z,98624.00
2023-04-05T23:51:20.549Z,98623.79
2023-04-05T23:53:47.389Z,98625.91
2023-04-05T23:56:14.983Z,98612.19
2023-04-05T23:58:41.848Z,98615.90
